Time;durP1;ratioP1;P1;durP2;ratioP2;P2;SDS_P1;SDS_P2;PMS_P1;PMS_P2;Temp;Humidity;BMP_temperature;BMP_pressure;BME280_temperature;BME280_humidity;BME280_pressure;Samples;Min_cycle;Max_cycle;Signal;HPM_P1;HPM_P2
2021/05/25 00:00:31;;;;;;;1.40;1.13;;;13.90;85.40;;;;;;5012722;28;20022;-65
2021/05/25 00:02:57;;;;;;;1.35;1.08;;;13.70;84.00;;;;;;5012756;28;20021;-65
2021/05/25 00:05:26;;;;;;;2.45;1.50;;;13.50;83.30;;;;;;5012791;28;20018;-65
2021/05/25 00:07:52;;;;;;;3.33;1.60;;;13.50;86.20;;;;;;5011961;28;20072;-65
2021/05/25 00:10:18;;;;;;;2.83;1.40;;;13.40;87.00;;;;;;5012694;28;20025;-65
2021/05/25 00:12:44;;;;;;;1.58;1.48;;;13.40;87.60;;;;;;5012470;28;20092;-65
2021/05/25 00:15:14;;;;;;;2.45;1.23;;;13.30;87.40;;;;;;4999290;28;20430;-65
2021/05/25 00:17:40;;;;;;;2.90;1.38;;;13.10;86.10;;;;;;4992112;28;20109;-65
2021/05/25 00:20:08;;;;;;;6.68;2.08;;;12.90;86.20;;;;;;5004188;28;20112;-65
2021/05/25 00:22:34;;;;;;;2.97;2.67;;;12.80;88.00;;;;;;5012338;28;20498;-65
2021/05/25 00:25:00;;;;;;;3.90;2.83;;;12.80;89.50;;;;;;5011271;28;20105;-65
2021/05/25 00:27:25;;;;;;;3.85;3.30;;;12.90;90.50;;;;;;5011884;28;20093;-64
2021/05/25 00:29:51;;;;;;;4.40;3.08;;;13.00;91.10;;;;;;5012566;28;20105;-65
2021/05/25 00:32:17;;;;;;;3.90;3.30;;;13.00;91.50;;;;;;5012517;28;20440;-65
2021/05/25 00:34:42;;;;;;;3.45;3.05;;;13.10;91.50;;;;;;5012418;28;20053;-65
2021/05/25 00:37:08;;;;;;;5.10;3.00;;;13.10;91.40;;;;;;5010321;28;20108;-65
2021/05/25 00:39:33;;;;;;;4.68;3.28;;;13.10;91.50;;;;;;5012073;28;20356;-65
2021/05/25 00:41:59;;;;;;;3.35;2.83;;;13.20;91.70;;;;;;5010934;28;20053;-65
2021/05/25 00:44:24;;;;;;;5.82;3.28;;;13.20;91.10;;;;;;5010880;28;20037;-65
2021/05/25 00:46:52;;;;;;;4.55;3.17;;;13.30;91.70;;;;;;5011375;28;20017;-65
2021/05/25 00:49:17;;;;;;;2.22;1.95;;;13.20;90.80;;;;;;5010283;28;20018;-65
2021/05/25 00:51:43;;;;;;;3.25;2.88;;;13.20;90.70;;;;;;5010862;28;20745;-65
2021/05/25 00:54:09;;;;;;;3.83;2.50;;;13.30;90.30;;;;;;5012252;28;20022;-65
2021/05/25 00:56:34;;;;;;;3.03;2.70;;;13.20;90.30;;;;;;5011256;28;20120;-64
2021/05/25 00:59:01;;;;;;;5.63;3.70;;;13.30;90.90;;;;;;5011749;28;20080;-64
2021/05/25 01:01:26;;;;;;;3.40;2.70;;;13.30;90.80;;;;;;5011958;28;20010;-64
2021/05/25 01:03:53;;;;;;;5.15;3.85;;;13.20;90.40;;;;;;5012200;28;20025;-64
2021/05/25 01:06:18;;;;;;;4.47;3.13;;;13.10;90.30;;;;;;5011238;28;20109;-64
2021/05/25 01:08:44;;;;;;;5.50;3.72;;;13.10;90.80;;;;;;5010568;28;20097;-64
2021/05/25 01:11:14;;;;;;;4.25;3.10;;;13.20;91.30;;;;;;5012059;28;20029;-65
2021/05/25 01:13:49;;;;;;;3.47;2.72;;;13.30;91.20;;;;;;5011914;28;20096;-65
2021/05/25 01:16:15;;;;;;;6.10;3.80;;;13.20;91.20;;;;;;5009707;28;20028;-64
2021/05/25 01:18:41;;;;;;;5.40;2.65;;;13.20;90.60;;;;;;5011409;28;20460;-64
2021/05/25 01:21:08;;;;;;;5.00;3.97;;;13.20;91.10;;;;;;5010578;28;20052;-64
2021/05/25 01:23:35;;;;;;;6.75;3.10;;;13.20;90.80;;;;;;5010526;28;20018;-64
2021/05/25 01:26:02;;;;;;;4.15;2.67;;;13.20;90.00;;;;;;5011731;28;20026;-63
2021/05/25 01:28:29;;;;;;;3.58;3.15;;;13.20;90.10;;;;;;5011664;28;20022;-64
2021/05/25 01:30:56;;;;;;;3.90;2.85;;;13.10;89.50;;;;;;5012485;28;20037;-65
2021/05/25 01:33:23;;;;;;;3.70;2.40;;;13.10;89.40;;;;;;5011487;28;20018;-64
2021/05/25 01:35:49;;;;;;;2.65;2.25;;;13.10;89.60;;;;;;5011573;28;20149;-64
2021/05/25 01:38:16;;;;;;;3.70;2.65;;;13.10;88.70;;;;;;5024753;22;20022;-68
2021/05/25 01:40:43;;;;;;;4.88;1.98;;;13.20;88.10;;;;;;5011339;28;20041;-67
2021/05/25 01:43:09;;;;;;;4.63;1.60;;;13.20;87.90;;;;;;5010186;28;20022;-68
2021/05/25 01:45:35;;;;;;;3.85;2.47;;;13.20;87.60;;;;;;5011427;28;20491;-67
2021/05/25 01:48:04;;;;;;;2.45;1.70;;;13.20;87.30;;;;;;5010591;28;20025;-68
2021/05/25 01:50:31;;;;;;;3.58;2.10;;;13.20;85.90;;;;;;5011086;28;20152;-68
2021/05/25 01:53:01;;;;;;;2.72;1.48;;;13.10;86.10;;;;;;5011309;28;20025;-68
2021/05/25 01:55:28;;;;;;;2.45;1.55;;;13.20;84.60;;;;;;5011362;28;20025;-68
2021/05/25 01:57:55;;;;;;;2.78;1.40;;;13.10;84.90;;;;;;5009434;28;20135;-68
2021/05/25 02:00:22;;;;;;;2.28;1.85;;;13.20;84.70;;;;;;5014187;28;20069;-67
2021/05/25 02:02:47;;;;;;;3.05;1.70;;;13.10;85.80;;;;;;5014984;28;20026;-68
2021/05/25 02:05:13;;;;;;;6.07;2.15;;;13.20;84.60;;;;;;5014848;28;20076;-67
2021/05/25 02:07:38;;;;;;;3.83;1.80;;;13.10;84.90;;;;;;5014253;28;20095;-68
2021/05/25 02:10:06;;;;;;;2.78;1.75;;;13.20;84.80;;;;;;5014989;28;20054;-67
2021/05/25 02:12:31;;;;;;;3.90;2.15;;;13.30;84.40;;;;;;5014689;28;20080;-68
2021/05/25 02:14:57;;;;;;;3.15;1.70;;;13.30;84.10;;;;;;5009808;28;20022;-68
2021/05/25 02:17:25;;;;;;;4.18;1.52;;;13.20;83.90;;;;;;4994451;28;20105;-69
2021/05/25 02:19:51;;;;;;;2.25;1.30;;;13.20;84.30;;;;;;4995008;28;20022;-69
2021/05/25 02:22:16;;;;;;;2.40;1.67;;;13.20;83.90;;;;;;5010026;28;20102;-69
2021/05/25 02:24:42;;;;;;;3.45;1.70;;;13.20;84.40;;;;;;4994890;28;20030;-68
2021/05/25 02:27:08;;;;;;;2.92;1.38;;;13.30;83.90;;;;;;4994162;28;20050;-68
2021/05/25 02:29:33;;;;;;;7.38;2.22;;;13.30;83.60;;;;;;4993544;28;20019;-68
2021/05/25 02:31:59;;;;;;;2.88;1.80;;;13.30;83.90;;;;;;4994802;28;20022;-68
2021/05/25 02:34:24;;;;;;;4.30;2.05;;;13.30;83.50;;;;;;5009617;28;20072;-68
2021/05/25 02:36:50;;;;;;;3.00;2.08;;;13.30;83.10;;;;;;4993858;28;20105;-67
2021/05/25 02:39:15;;;;;;;3.05;1.75;;;13.20;83.40;;;;;;4994519;28;20081;-68
2021/05/25 02:41:41;;;;;;;4.43;1.88;;;13.30;82.50;;;;;;4994741;28;20023;-67
2021/05/25 02:44:07;;;;;;;3.25;1.88;;;13.30;82.20;;;;;;4994604;28;20025;-67
2021/05/25 02:46:32;;;;;;;3.17;1.67;;;13.20;82.60;;;;;;4993848;28;20041;-67
2021/05/25 02:48:58;;;;;;;1.52;1.30;;;13.20;82.10;;;;;;4994268;28;20025;-67
2021/05/25 02:51:24;;;;;;;2.05;1.33;;;13.20;81.00;;;;;;4994465;28;20018;-68
2021/05/25 02:53:49;;;;;;;4.60;2.17;;;13.20;81.50;;;;;;5009532;28;20019;-68
2021/05/25 02:56:15;;;;;;;2.40;1.30;;;13.20;80.90;;;;;;4993793;28;20468;-68
2021/05/25 02:58:40;;;;;;;2.45;1.55;;;13.20;81.70;;;;;;4994101;28;20093;-67
2021/05/25 03:01:08;;;;;;;3.60;1.65;;;13.20;81.20;;;;;;4997984;28;20026;-67
2021/05/25 03:03:33;;;;;;;3.25;1.70;;;13.20;83.00;;;;;;5013723;28;20029;-67
2021/05/25 03:05:59;;;;;;;1.65;1.00;;;13.10;82.70;;;;;;5013650;28;20022;-68
2021/05/25 03:08:26;;;;;;;3.42;1.60;;;13.00;82.10;;;;;;5013011;28;20022;-69
2021/05/25 03:10:52;;;;;;;2.08;1.60;;;12.80;83.90;;;;;;5012905;28;20101;-67
2021/05/25 03:13:18;;;;;;;63.80;43.15;;;12.70;83.40;;;;;;5013676;28;20022;-68
2021/05/25 03:15:46;;;;;;;207.07;125.43;;;12.60;83.70;;;;;;5013511;28;20193;-67
2021/05/25 03:18:12;;;;;;;18.52;10.52;;;12.50;84.00;;;;;;5012701;28;20022;-68
2021/05/25 03:20:38;;;;;;;11.95;5.60;;;12.50;84.60;;;;;;5013537;28;20033;-68
2021/05/25 03:23:06;;;;;;;14.23;6.10;;;12.50;85.40;;;;;;5013990;28;20022;-68
2021/05/25 03:25:31;;;;;;;32.03;19.15;;;12.50;84.90;;;;;;5013580;28;20063;-69
2021/05/25 03:28:00;;;;;;;458.10;361.83;;;12.50;84.80;;;;;;5012400;28;20018;-67
2021/05/25 03:30:27;;;;;;;672.35;461.42;;;12.50;85.30;;;;;;5013341;28;20025;-67
2021/05/25 03:32:53;;;;;;;4.90;2.38;;;12.40;85.30;;;;;;5013391;28;20067;-67
2021/05/25 03:35:21;;;;;;;3.20;2.30;;;12.30;85.90;;;;;;5013306;28;20524;-68
2021/05/25 03:37:46;;;;;;;2.13;1.73;;;12.40;86.00;;;;;;5011178;28;20028;-68
2021/05/25 03:40:16;;;;;;;3.97;1.63;;;12.40;86.00;;;;;;5012860;28;20379;-68
2021/05/25 03:42:49;;;;;;;1.88;1.50;;;12.30;86.20;;;;;;5013272;28;20025;-67
2021/05/25 03:45:16;;;;;;;1.70;1.40;;;12.30;86.30;;;;;;5012870;28;20041;-68
2021/05/25 03:47:42;;;;;;;3.50;2.13;;;12.30;85.70;;;;;;5012284;28;20010;-68
2021/05/25 03:50:09;;;;;;;2.28;1.42;;;12.30;84.90;;;;;;5011680;28;20080;-68
2021/05/25 03:52:45;;;;;;;2.92;1.40;;;12.30;85.50;;;;;;5011552;28;20399;-68
2021/05/25 03:55:29;;;;;;;2.72;1.42;;;12.40;85.70;;;;;;5012832;28;20026;-68
2021/05/25 04:00:39;;;;;;;2.00;1.58;;;12.50;84.80;;;;;;5012710;28;20032;-68
2021/05/25 04:03:05;;;;;;;1.75;1.40;;;12.50;84.60;;;;;;5012623;28;20444;-69
2021/05/25 04:05:33;;;;;;;2.42;1.67;;;12.50;84.60;;;;;;5012550;28;20018;-68
2021/05/25 04:07:58;;;;;;;2.65;1.77;;;12.50;84.50;;;;;;5011627;28;20026;-68
2021/05/25 04:10:24;;;;;;;2.90;1.60;;;12.60;83.90;;;;;;5012560;28;20357;-68
2021/05/25 04:12:52;;;;;;;5.70;1.85;;;12.60;83.20;;;;;;5012486;28;20049;-68
2021/05/25 04:15:18;;;;;;;2.95;1.48;;;12.70;82.50;;;;;;5012256;28;20052;-68
2021/05/25 04:17:44;;;;;;;1.38;1.25;;;12.70;80.70;;;;;;5011560;28;20029;-68
2021/05/25 04:20:11;;;;;;;4.30;1.60;;;12.70;80.60;;;;;;5012184;28;20456;-69
2021/05/25 04:22:38;;;;;;;2.35;1.73;;;12.70;80.00;;;;;;5011227;28;20026;-68
2021/05/25 04:25:05;;;;;;;4.50;1.83;;;12.80;81.30;;;;;;5010932;28;20014;-68
2021/05/25 04:27:31;;;;;;;3.28;1.67;;;12.80;80.70;;;;;;5011364;28;20391;-69
2021/05/25 04:29:56;;;;;;;1.35;1.20;;;12.80;80.30;;;;;;5004101;28;20034;-68
2021/05/25 04:32:22;;;;;;;1.75;1.25;;;12.90;79.60;;;;;;5009664;28;20029;-67
2021/05/25 04:34:48;;;;;;;2.03;1.42;;;12.90;79.60;;;;;;5012265;28;20134;-67
2021/05/25 04:37:14;;;;;;;2.42;1.15;;;13.00;76.50;;;;;;5011147;28;20029;-67
2021/05/25 04:39:39;;;;;;;2.40;1.25;;;13.00;77.50;;;;;;5011617;28;20041;-67
2021/05/25 04:42:05;;;;;;;2.35;1.33;;;13.10;77.70;;;;;;5012341;28;20046;-67
2021/05/25 04:44:30;;;;;;;11.32;3.60;;;13.20;78.20;;;;;;5011698;28;20021;-68
2021/05/25 04:46:56;;;;;;;2.95;1.23;;;13.30;77.40;;;;;;5010956;28;20077;-67
2021/05/25 04:49:24;;;;;;;3.38;1.10;;;13.20;77.00;;;;;;5011766;28;20421;-67
2021/05/25 04:51:51;;;;;;;2.83;1.30;;;13.10;77.20;;;;;;5011640;28;20060;-67
2021/05/25 04:54:17;;;;;;;5.15;1.98;;;13.10;76.60;;;;;;5010428;28;20475;-68
2021/05/25 04:56:44;;;;;;;2.85;1.50;;;13.10;77.90;;;;;;5007106;28;20029;-66
2021/05/25 04:59:09;;;;;;;4.68;1.23;;;13.20;79.00;;;;;;5011432;28;20050;-67
2021/05/25 05:01:35;;;;;;;3.47;1.38;;;13.20;78.50;;;;;;5009550;28;20458;-68
2021/05/25 05:04:03;;;;;;;3.03;1.30;;;13.20;77.60;;;;;;5008395;28;20021;-67
2021/05/25 05:06:28;;;;;;;2.72;1.20;;;13.20;78.00;;;;;;5010310;28;20017;-68
2021/05/25 05:08:54;;;;;;;2.55;1.45;;;13.20;78.60;;;;;;5011603;28;20049;-68
2021/05/25 05:11:19;;;;;;;2.53;1.33;;;13.20;78.90;;;;;;5011157;28;20017;-67
2021/05/25 05:13:45;;;;;;;3.17;1.50;;;13.20;77.70;;;;;;5011281;28;20526;-68
2021/05/25 05:16:12;;;;;;;2.58;1.42;;;13.00;79.20;;;;;;5010503;28;20030;-68
2021/05/25 05:18:38;;;;;;;2.67;1.42;;;13.10;80.40;;;;;;5011154;28;20018;-69
2021/05/25 05:21:03;;;;;;;3.30;1.25;;;13.30;79.70;;;;;;5011200;28;20037;-68
2021/05/25 05:23:29;;;;;;;2.45;1.48;;;13.50;80.20;;;;;;5011371;28;20026;-68
2021/05/25 05:25:54;;;;;;;2.40;1.52;;;13.50;80.10;;;;;;5009761;28;20026;-68
2021/05/25 05:28:20;;;;;;;3.60;1.92;;;13.60;79.30;;;;;;5010468;28;20033;-73
2021/05/25 05:30:46;;;;;;;2.70;1.30;;;13.50;74.00;;;;;;5005642;28;20153;-72
2021/05/25 05:33:11;;;;;;;6.43;1.45;;;13.50;69.80;;;;;;5011051;28;20452;-70
2021/05/25 05:35:37;;;;;;;4.55;1.27;;;13.50;69.60;;;;;;5014333;28;20093;-69
2021/05/25 05:38:03;;;;;;;0.77;0.57;;;13.70;67.20;;;;;;5014157;28;20033;-72
2021/05/25 05:40:28;;;;;;;4.32;1.13;;;13.70;65.70;;;;;;5014705;28;20026;-68
2021/05/25 05:42:54;;;;;;;3.33;1.10;;;13.70;64.70;;;;;;5014989;28;20026;-68
2021/05/25 05:45:21;;;;;;;1.73;1.10;;;13.70;65.00;;;;;;5013590;28;20022;-66
2021/05/25 05:47:47;;;;;;;2.55;1.10;;;13.70;64.00;;;;;;5012456;28;20026;-67
2021/05/25 05:50:13;;;;;;;3.25;0.70;;;13.60;64.60;;;;;;5009248;28;20018;-68
2021/05/25 05:52:40;;;;;;;3.63;0.85;;;13.60;64.90;;;;;;4996793;28;20393;-67
2021/05/25 05:55:06;;;;;;;7.30;0.93;;;13.80;63.70;;;;;;5013541;28;20029;-67
2021/05/25 05:57:33;;;;;;;3.72;1.15;;;13.90;64.30;;;;;;4999837;28;20078;-68
2021/05/25 05:59:58;;;;;;;5.70;2.15;;;14.00;62.70;;;;;;5014521;28;20053;-69
2021/05/25 06:02:24;;;;;;;1.85;0.70;;;14.10;61.70;;;;;;5014262;28;20047;-67
2021/05/25 06:04:50;;;;;;;6.50;1.33;;;14.00;59.30;;;;;;5010489;28;20021;-68
2021/05/25 06:07:17;;;;;;;4.47;0.88;;;14.00;60.10;;;;;;5014030;28;20018;-68
2021/05/25 06:09:43;;;;;;;2.45;0.70;;;14.00;59.90;;;;;;5013109;28;20149;-68
2021/05/25 06:12:08;;;;;;;3.50;0.90;;;14.00;59.90;;;;;;5014276;28;20037;-69
2021/05/25 06:14:34;;;;;;;1.75;0.77;;;14.10;59.60;;;;;;5014232;28;20030;-68
2021/05/25 06:17:01;;;;;;;3.67;1.05;;;14.00;57.90;;;;;;5013603;28;20026;-69
2021/05/25 06:19:26;;;;;;;2.78;0.80;;;13.80;57.00;;;;;;5006533;28;20018;-69
2021/05/25 06:21:52;;;;;;;3.90;0.75;;;13.90;57.30;;;;;;5005130;28;20045;-69
2021/05/25 06:24:17;;;;;;;1.25;0.50;;;13.90;57.40;;;;;;5013133;28;20026;-69
2021/05/25 06:26:43;;;;;;;2.67;0.93;;;14.00;55.50;;;;;;5012174;28;20053;-68
2021/05/25 06:29:09;;;;;;;4.60;0.90;;;14.00;55.50;;;;;;5013673;28;20030;-68
2021/05/25 06:31:36;;;;;;;2.22;0.63;;;13.90;55.80;;;;;;5014190;28;20029;-68
2021/05/25 06:34:02;;;;;;;1.52;0.75;;;13.90;55.90;;;;;;5013804;28;20046;-68
2021/05/25 06:36:28;;;;;;;1.67;0.93;;;13.90;55.30;;;;;;5012816;28;20570;-68
2021/05/25 06:38:56;;;;;;;3.25;0.70;;;13.90;56.00;;;;;;5013681;28;20030;-68
2021/05/25 06:41:22;;;;;;;4.65;0.85;;;13.70;55.80;;;;;;5013461;28;20429;-68
2021/05/25 06:43:50;;;;;;;2.22;0.80;;;13.60;55.20;;;;;;5013664;28;20116;-69
2021/05/25 06:46:16;;;;;;;3.30;1.33;;;13.50;55.50;;;;;;5012010;28;20080;-68
2021/05/25 06:48:41;;;;;;;2.35;0.65;;;13.50;55.80;;;;;;5013615;28;20463;-69
2021/05/25 06:51:07;;;;;;;5.00;1.63;;;13.50;54.90;;;;;;5013806;28;20380;-67
2021/05/25 06:53:37;;;;;;;1.83;1.05;;;13.50;54.60;;;;;;5012602;28;20022;-69
2021/05/25 06:56:04;;;;;;;7.07;0.98;;;13.60;54.40;;;;;;5011646;28;20026;-69
2021/05/25 06:58:31;;;;;;;1.30;0.75;;;13.60;53.60;;;;;;5013128;28;20026;-67
2021/05/25 07:00:57;;;;;;;3.40;0.98;;;13.60;54.00;;;;;;5013342;28;20078;-68
2021/05/25 07:03:23;;;;;;;4.97;0.80;;;13.80;53.30;;;;;;5013617;28;20038;-67
2021/05/25 07:05:48;;;;;;;0.80;0.55;;;14.00;52.60;;;;;;5013118;28;20097;-68
2021/05/25 07:08:14;;;;;;;4.32;1.08;;;14.10;52.50;;;;;;5012786;28;20408;-69
2021/05/25 07:10:39;;;;;;;2.28;0.70;;;14.10;51.00;;;;;;5013007;28;20399;-69
2021/05/25 07:13:07;;;;;;;2.17;0.60;;;14.00;51.30;;;;;;5013189;28;20061;-69
2021/05/25 07:15:33;;;;;;;1.20;0.77;;;14.00;51.50;;;;;;5012826;28;20040;-69
2021/05/25 07:17:58;;;;;;;1.65;1.08;;;13.90;52.30;;;;;;5012300;28;20105;-68
2021/05/25 07:20:25;;;;;;;2.10;0.93;;;14.00;51.90;;;;;;5012940;28;20053;-69
2021/05/25 07:22:53;;;;;;;3.33;0.82;;;13.90;51.20;;;;;;5012256;28;20375;-69
2021/05/25 07:25:20;;;;;;;2.78;1.10;;;13.90;51.00;;;;;;5013195;28;20041;-69
2021/05/25 07:27:46;;;;;;;3.78;1.08;;;14.00;51.50;;;;;;5011140;28;20025;-69
2021/05/25 07:30:13;;;;;;;1.48;0.60;;;14.20;51.20;;;;;;5013043;28;20041;-68
2021/05/25 07:32:42;;;;;;;1.92;0.70;;;15.30;49.30;;;;;;5013062;28;20029;-69
2021/05/25 07:35:08;;;;;;;1.63;0.60;;;16.10;45.90;;;;;;5012949;28;20025;-69
2021/05/25 07:37:34;;;;;;;4.18;0.80;;;16.30;45.60;;;;;;5010924;28;20112;-68
2021/05/25 07:40:00;;;;;;;7.07;2.67;;;16.00;46.00;;;;;;5013837;28;20109;-67
2021/05/25 07:42:26;;;;;;;2.95;0.93;;;16.00;46.60;;;;;;5011870;28;20033;-67
2021/05/25 07:44:52;;;;;;;3.00;1.02;;;15.80;46.30;;;;;;5012870;28;20022;-69
2021/05/25 07:47:18;;;;;;;0.90;0.70;;;15.80;48.00;;;;;;5012271;28;20060;-68
2021/05/25 07:49:46;;;;;;;3.55;1.42;;;15.60;48.00;;;;;;5012727;28;20069;-72
2021/05/25 07:52:12;;;;;;;1.38;0.93;;;15.60;48.20;;;;;;5012534;28;20469;-73
2021/05/25 07:54:37;;;;;;;3.05;1.00;;;16.20;48.20;;;;;;5012608;28;20045;-71
2021/05/25 07:57:04;;;;;;;1.35;0.80;;;;;;;;;;5011664;28;20033;-71
2021/05/25 07:59:29;;;;;;;3.58;0.82;;;;;;;;;;5010811;28;20022;-71
2021/05/25 08:01:56;;;;;;;1.33;0.80;;;17.70;43.10;;;;;;5012319;28;20076;-72
2021/05/25 08:04:22;;;;;;;1.38;0.70;;;17.60;42.90;;;;;;5012526;28;20092;-70
2021/05/25 08:06:48;;;;;;;3.60;1.20;;;18.40;41.10;;;;;;5011621;28;20029;-71
2021/05/25 08:09:13;;;;;;;3.47;0.75;;;19.40;38.30;;;;;;5012320;28;20022;-71
2021/05/25 08:11:39;;;;;;;1.25;0.63;;;19.70;36.80;;;;;;5012576;28;20057;-70
2021/05/25 08:14:06;;;;;;;2.25;0.65;;;20.00;37.30;;;;;;5012378;28;20480;-71
2021/05/25 08:16:34;;;;;;;2.45;0.70;;;20.80;35.00;;;;;;5011185;28;20105;-71
2021/05/25 08:19:12;;;;;;;2.25;0.80;;;21.70;34.00;;;;;;5012028;28;20079;-71
2021/05/25 08:21:39;;;;;;;3.78;1.00;;;23.10;32.60;;;;;;5012128;28;20025;-71
2021/05/25 08:24:08;;;;;;;3.13;0.88;;;22.30;31.80;;;;;;5011135;28;20432;-72
2021/05/25 08:26:36;;;;;;;4.07;0.70;;;21.10;33.10;;;;;;5007139;28;20405;-71
2021/05/25 08:29:02;;;;;;;1.35;0.73;;;20.00;35.90;;;;;;5000958;28;20037;-72
2021/05/25 08:31:28;;;;;;;1.55;0.57;;;19.70;36.00;;;;;;5010216;28;20018;-70
2021/05/25 08:33:53;;;;;;;1.80;0.63;;;19.30;36.30;;;;;;5010610;28;20079;-71
2021/05/25 08:36:21;;;;;;;4.68;0.40;;;18.70;38.10;;;;;;5010255;28;20022;-71
2021/05/25 08:38:47;;;;;;;2.10;0.57;;;18.50;38.10;;;;;;5009376;28;20033;-71
2021/05/25 08:41:12;;;;;;;0.88;0.57;;;18.50;39.10;;;;;;5010957;28;20018;-68
2021/05/25 08:43:38;;;;;;;2.80;0.77;;;18.70;38.90;;;;;;5008791;28;20121;-70
2021/05/25 08:46:05;;;;;;;0.95;0.60;;;18.50;38.80;;;;;;5010149;28;20050;-72
2021/05/25 08:48:30;;;;;;;0.98;0.38;;;18.30;39.50;;;;;;5010216;28;20018;-73
2021/05/25 08:51:00;;;;;;;1.42;0.57;;;18.20;40.10;;;;;;5010119;28;20036;-72
2021/05/25 08:53:27;;;;;;;2.60;0.40;;;18.20;39.50;;;;;;5009342;28;20030;-72
2021/05/25 08:55:53;;;;;;;4.03;0.88;;;18.50;39.50;;;;;;5009747;28;20108;-71
2021/05/25 08:58:20;;;;;;;2.08;0.80;;;18.90;38.00;;;;;;5010856;28;20026;-72
2021/05/25 09:00:47;;;;;;;2.17;0.63;;;18.80;38.10;;;;;;5011600;28;20095;-72
2021/05/25 09:03:17;;;;;;;1.73;0.55;;;18.50;38.80;;;;;;5011563;28;20029;-73
2021/05/25 09:06:07;;;;;;;0.77;0.57;;;18.60;38.00;;;;;;5010078;28;22000;-71
2021/05/25 09:08:34;;;;;;;3.15;0.75;;;18.70;37.80;;;;;;5008345;28;20096;-69
2021/05/25 09:11:10;;;;;;;2.83;0.80;;;18.50;38.00;;;;;;5010347;28;20061;-71
2021/05/25 09:13:36;;;;;;;7.22;0.85;;;18.30;38.60;;;;;;4990293;28;20019;-71
2021/05/25 09:16:07;;;;;;;2.30;0.65;;;18.20;39.20;;;;;;5008208;28;20535;-68
2021/05/25 09:18:46;;;;;;;0.80;0.70;;;18.30;39.40;;;;;;5009696;28;20022;-71
2021/05/25 09:21:28;;;;;;;0.52;0.40;;;18.50;37.70;;;;;;5011359;28;20456;-73
2021/05/25 09:23:54;;;;;;;0.75;0.32;;;18.70;37.40;;;;;;5011076;28;20428;-71
2021/05/25 09:26:43;;;;;;;2.90;0.60;;;19.20;36.20;;;;;;5010641;28;20057;-73
2021/05/25 09:29:10;;;;;;;4.47;0.60;;;19.50;37.40;;;;;;5011334;28;20045;-71
2021/05/25 09:31:35;;;;;;;2.58;0.75;;;19.80;36.20;;;;;;5011249;28;20061;-72
2021/05/25 09:34:21;;;;;;;2.30;0.63;;;19.20;36.90;;;;;;5011326;28;20488;-72
2021/05/25 09:37:04;;;;;;;1.90;0.55;;;18.90;37.20;;;;;;5009259;28;20014;-72
2021/05/25 09:39:39;;;;;;;3.05;0.95;;;18.50;37.40;;;;;;5011014;28;20030;-69
2021/05/25 09:42:07;;;;;;;0.70;0.60;;;18.40;38.60;;;;;;4991742;28;20105;-70
2021/05/25 09:44:36;;;;;;;2.63;0.57;;;18.20;37.80;;;;;;4990335;28;20030;-72
2021/05/25 09:47:04;;;;;;;1.92;0.88;;;18.30;38.20;;;;;;4990502;28;20059;-68
2021/05/25 09:49:32;;;;;;;3.17;1.13;;;18.00;38.70;;;;;;4991501;28;20030;-71
2021/05/25 09:52:08;;;;;;;1.85;0.40;;;17.90;40.20;;;;;;4991488;28;20077;-73
2021/05/25 09:54:34;;;;;;;0.85;0.45;;;17.70;41.10;;;;;;4991457;28;20380;-70
2021/05/25 09:57:02;;;;;;;2.78;0.77;;;18.10;40.90;;;;;;4990450;28;20464;-70
2021/05/25 09:59:36;;;;;;;2.42;0.55;;;19.10;39.00;;;;;;4990814;28;20030;-70
2021/05/25 10:02:17;;;;;;;0.93;0.50;;;20.50;35.80;;;;;;4991509;28;20345;-72
2021/05/25 10:04:58;;;;;;;;;;;21.40;31.80;;;;;;4991675;28;20018;-70
2021/05/25 10:07:26;;;;;;;3.20;1.17;;;21.50;32.80;;;;;;5003514;28;19968;-71
2021/05/25 10:09:56;;;;;;;2.42;0.60;;;21.30;30.80;;;;;;5009333;28;20096;-71
2021/05/25 10:12:27;;;;;;;4.85;1.20;;;20.90;31.70;;;;;;5009693;28;20107;-73
2021/05/25 10:14:53;;;;;;;;;;;20.10;32.60;;;;;;5011379;28;20357;-71
2021/05/25 10:20:07;;;;;;;2.63;0.95;;;20.20;33.80;;;;;;5011772;28;20093;-71
2021/05/25 10:22:35;;;;;;;3.88;0.60;;;20.20;33.50;;;;;;5014295;28;20026;-71
2021/05/25 10:25:01;;;;;;;5.00;0.73;;;19.70;33.30;;;;;;5013219;28;20104;-71
2021/05/25 10:27:28;;;;;;;7.03;0.80;;;19.30;33.50;;;;;;5012269;28;20022;-70
2021/05/25 10:29:54;;;;;;;1.58;0.50;;;18.80;35.00;;;;;;5012889;28;20021;-72
2021/05/25 10:32:24;;;;;;;4.32;0.60;;;19.00;34.50;;;;;;5014082;28;20037;-69
2021/05/25 10:34:54;;;;;;;3.05;0.90;;;19.10;35.10;;;;;;5014094;28;20511;-71
2021/05/25 10:37:21;;;;;;;1.15;0.73;;;19.20;35.50;;;;;;5011931;28;20088;-70
2021/05/25 10:39:53;;;;;;;4.05;0.52;;;19.40;34.80;;;;;;5013467;28;20451;-73
2021/05/25 10:42:21;;;;;;;1.42;0.40;;;19.70;33.70;;;;;;4994784;28;20014;-69
2021/05/25 10:44:49;;;;;;;1.20;0.40;;;20.00;33.90;;;;;;4994524;28;20018;-71
2021/05/25 10:47:21;;;;;;;3.90;0.80;;;20.20;31.50;;;;;;4994559;28;20460;-71
2021/05/25 10:49:54;;;;;;;0.80;0.70;;;20.40;32.80;;;;;;4998958;28;20026;-71
2021/05/25 10:52:21;;;;;;;0.32;0.30;;;20.40;32.20;;;;;;4994439;28;20026;-71
2021/05/25 10:54:51;;;;;;;4.18;0.45;;;20.20;31.60;;;;;;4994673;28;20034;-71
2021/05/25 10:57:34;;;;;;;0.83;0.50;;;19.80;33.40;;;;;;4994563;28;20022;-72
2021/05/25 11:00:10;;;;;;;2.10;0.80;;;19.80;33.00;;;;;;5013077;28;20088;-72
2021/05/25 11:02:49;;;;;;;0.93;0.50;;;19.40;33.00;;;;;;5013612;28;20356;-68
2021/05/25 11:05:30;;;;;;;2.08;0.32;;;19.30;32.10;;;;;;5012626;28;20050;-71
2021/05/25 11:08:07;;;;;;;1.10;0.30;;;19.30;32.50;;;;;;5012674;28;20018;-72
2021/05/25 11:10:46;;;;;;;3.70;0.80;;;19.50;33.50;;;;;;5013567;28;20024;-71
2021/05/25 11:13:15;;;;;;;0.63;0.35;;;19.60;33.70;;;;;;5013714;28;20205;-71
2021/05/25 11:16:07;;;;;;;1.40;0.50;;;19.50;32.90;;;;;;5008951;28;20046;-71
2021/05/25 11:18:45;;;;;;;2.28;0.52;;;19.00;33.00;;;;;;4993882;28;20018;-71
2021/05/25 11:24:31;;;;;;;1.80;0.35;;;18.20;36.00;;;;;;4993718;28;20444;-72
2021/05/25 11:27:11;;;;;;;2.60;0.32;;;18.20;35.70;;;;;;4992562;28;20030;-71
2021/05/25 11:29:38;;;;;;;0.57;0.22;;;18.00;35.20;;;;;;4993813;28;20029;-71
2021/05/25 11:32:13;;;;;;;0.43;0.20;;;18.10;35.00;;;;;;4999562;28;20017;-71
2021/05/25 11:34:40;;;;;;;1.85;0.95;;;18.00;34.50;;;;;;5012605;28;20093;-67
2021/05/25 11:37:08;;;;;;;4.80;1.10;;;18.10;35.20;;;;;;5012049;28;20017;-70
2021/05/25 11:39:34;;;;;;;3.03;0.47;;;18.30;35.90;;;;;;5012309;28;20030;-71
2021/05/25 11:42:02;;;;;;;0.88;0.55;;;18.50;34.90;;;;;;5011623;28;20022;-70
2021/05/25 11:44:34;;;;;;;0.68;0.50;;;18.60;34.30;;;;;;5012776;28;20471;-68
2021/05/25 11:47:05;;;;;;;1.23;0.68;;;19.00;33.90;;;;;;5011919;28;20483;-71
2021/05/25 11:49:36;;;;;;;1.40;0.40;;;19.20;33.90;;;;;;5012288;28;20033;-71
2021/05/25 11:52:22;;;;;;;1.67;0.57;;;19.60;33.50;;;;;;5012445;28;20432;-69
2021/05/25 11:54:50;;;;;;;3.30;1.65;;;20.00;33.40;;;;;;5012214;28;20026;-71
2021/05/25 11:57:32;;;;;;;0.30;0.10;;;20.40;33.30;;;;;;5011799;28;20022;-72
2021/05/25 12:00:00;;;;;;;1.30;0.47;;;20.50;32.50;;;;;;5012078;28;20034;-71
2021/05/25 12:02:28;;;;;;;0.65;0.30;;;20.20;32.10;;;;;;5012226;28;20519;-71
2021/05/25 12:05:05;;;;;;;1.45;0.70;;;19.90;33.30;;;;;;5012241;28;20072;-71
2021/05/25 12:07:31;;;;;;;0.98;0.40;;;19.50;33.40;;;;;;5009316;28;20028;-73
2021/05/25 12:09:59;;;;;;;1.35;0.60;;;19.40;32.70;;;;;;5009457;28;20026;-71
2021/05/25 12:12:28;;;;;;;0.93;0.43;;;19.20;32.70;;;;;;5010946;28;20094;-71
2021/05/25 12:14:53;;;;;;;2.33;0.35;;;19.10;33.50;;;;;;5011761;28;20033;-70
2021/05/25 12:17:23;;;;;;;3.92;0.68;;;18.60;34.70;;;;;;5009646;28;20026;-71
2021/05/25 12:19:58;;;;;;;4.55;0.85;;;18.20;35.70;;;;;;5010399;28;20030;-71
2021/05/25 12:22:39;;;;;;;5.75;1.30;;;17.60;39.50;;;;;;5010623;28;20030;-70
2021/05/25 12:25:25;;;;;;;1.83;0.45;;;17.00;51.20;;;;;;5010551;28;20500;-70
2021/05/25 12:28:13;;;;;;;3.70;0.60;;;16.20;59.50;;;;;;5005919;28;20483;-70
2021/05/25 12:30:49;;;;;;;3.20;0.52;;;15.90;64.60;;;;;;5007009;28;20465;-71
2021/05/25 12:33:19;;;;;;;5.72;0.70;;;15.70;63.40;;;;;;4977149;28;20451;-70
2021/05/25 12:35:45;;;;;;;1.77;0.52;;;15.70;62.50;;;;;;5009773;28;20292;-70
2021/05/25 12:38:14;;;;;;;3.00;0.50;;;15.50;62.00;;;;;;5009335;28;20060;-70
2021/05/25 12:40:42;;;;;;;1.38;0.43;;;15.50;61.40;;;;;;5010451;28;20030;-70
2021/05/25 12:43:37;;;;;;;2.00;0.55;;;15.70;59.10;;;;;;5008749;28;20022;-70
2021/05/25 12:46:11;;;;;;;2.35;0.32;;;15.40;56.60;;;;;;4992921;28;20056;-68
2021/05/25 12:48:44;;;;;;;3.50;0.50;;;15.10;58.10;;;;;;5010123;28;20380;-71
2021/05/25 12:51:11;;;;;;;2.00;0.30;;;14.90;63.00;;;;;;5006706;28;20030;-70
2021/05/25 12:53:54;;;;;;;1.70;0.35;;;14.80;67.60;;;;;;4990641;28;20088;-69
2021/05/25 12:56:21;;;;;;;1.52;0.50;;;15.00;64.80;;;;;;4989850;28;20081;-73
2021/05/25 12:58:52;;;;;;;0.30;0.20;;;15.40;62.30;;;;;;4991008;28;20064;-71
2021/05/25 13:01:21;;;;;;;1.17;0.30;;;15.50;61.30;;;;;;4998760;28;20213;-72